createdAt,value
2023-05-03T00:01:10.315Z,6.40
2023-05-03T00:03:38.079Z,6.80
2023-05-03T00:06:14.956Z,6.50
2023-05-03T00:08:42.655Z,6.70
2023-05-03T00:11:09.731Z,6.80
2023-05-03T00:13:36.991Z,6.30
2023-05-03T00:16:04.136Z,7.00
2023-05-03T00:18:31.461Z,6.80
2023-05-03T00:20:59.798Z,6.60
2023-05-03T00:23:28.205Z,7.00
2023-05-03T00:25:56.279Z,6.70
2023-05-03T00:28:23.423Z,6.20
2023-05-03T00:30:50.747Z,6.40
2023-05-03T00:33:17.871Z,6.40
2023-05-03T00:35:45.231Z,6.30
2023-05-03T00:38:12.864Z,6.60
2023-05-03T00:40:40.221Z,6.10
2023-05-03T00:43:07.871Z,6.30
2023-05-03T00:45:35.618Z,6.40
2023-05-03T00:48:02.993Z,6.00
2023-05-03T00:50:30.047Z,6.30
2023-05-03T00:52:57.014Z,6.10
2023-05-03T00:55:24.085Z,5.80
2023-05-03T00:57:51.071Z,6.50
2023-05-03T01:00:18.301Z,6.10
2023-05-03T01:02:45.400Z,5.80
2023-05-03T01:05:12.834Z,5.80
2023-05-03T01:07:58.428Z,6.30
2023-05-03T01:10:47.479Z,6.20
2023-05-03T01:13:36.459Z,6.00
2023-05-03T01:16:07.282Z,6.20
2023-05-03T01:18:42.230Z,6.30
2023-05-03T01:21:09.833Z,6.20
2023-05-03T01:23:42.275Z,5.90
2023-05-03T01:26:18.528Z,6.00
2023-05-03T01:28:45.616Z,5.80
2023-05-03T01:31:14.425Z,6.00
2023-05-03T01:33:45.304Z,5.90
2023-05-03T01:36:16.107Z,6.20
2023-05-03T01:38:43.159Z,5.80
2023-05-03T01:41:11.934Z,6.00
2023-05-03T01:43:39.331Z,5.90
2023-05-03T01:46:07.426Z,5.70
2023-05-03T01:48:34.708Z,5.70
2023-05-03T01:51:03.532Z,6.30
2023-05-03T01:53:30.533Z,5.80
2023-05-03T01:55:57.538Z,5.90
2023-05-03T01:58:24.542Z,6.20
2023-05-03T02:00:51.681Z,6.30
2023-05-03T02:03:19.419Z,5.70
2023-05-03T02:05:46.916Z,6.10
2023-05-03T02:08:13.905Z,6.10
2023-05-03T02:10:41.005Z,6.10
2023-05-03T02:13:08.148Z,6.20
2023-05-03T02:15:35.203Z,5.50
2023-05-03T02:18:03.554Z,6.00
2023-05-03T02:20:35.542Z,6.60
2023-05-03T02:23:02.632Z,5.80
2023-05-03T02:25:29.899Z,6.20
2023-05-03T02:27:56.948Z,5.90
2023-05-03T02:30:24.892Z,6.50
2023-05-03T02:32:52.031Z,6.30
2023-05-03T02:35:19.512Z,6.60
2023-05-03T02:37:46.593Z,6.30
2023-05-03T02:40:13.683Z,6.40
2023-05-03T02:42:41.308Z,6.40
2023-05-03T02:45:09.032Z,6.80
2023-05-03T02:47:36.189Z,7.10
2023-05-03T02:50:03.559Z,6.90
2023-05-03T02:52:31.249Z,6.90
2023-05-03T02:54:58.259Z,6.30
2023-05-03T02:57:25.779Z,6.70
2023-05-03T02:59:52.832Z,6.50
2023-05-03T03:02:22.311Z,7.30
2023-05-03T03:04:49.422Z,6.40
2023-05-03T03:07:16.459Z,6.40
2023-05-03T03:09:43.536Z,6.50
2023-05-03T03:12:10.523Z,6.50
2023-05-03T03:14:37.751Z,6.20
2023-05-03T03:17:08.038Z,6.20
2023-05-03T03:19:35.090Z,5.80
2023-05-03T03:22:02.154Z,5.90
2023-05-03T03:24:30.190Z,6.40
2023-05-03T03:26:57.425Z,6.00
2023-05-03T03:29:24.911Z,5.80
2023-05-03T03:31:52.334Z,6.10
2023-05-03T03:34:19.464Z,6.10
2023-05-03T03:36:46.544Z,6.40
2023-05-03T03:39:14.503Z,5.70
2023-05-03T03:41:42.529Z,5.40
2023-05-03T03:44:09.662Z,6.00
2023-05-03T03:46:37.839Z,5.80
2023-05-03T03:49:04.928Z,5.60
2023-05-03T03:51:31.963Z,5.60
2023-05-03T03:53:59.504Z,5.40
2023-05-03T03:56:27.027Z,5.00
2023-05-03T03:58:54.895Z,5.10
2023-05-03T04:01:21.970Z,5.20
2023-05-03T04:03:49.345Z,5.30
2023-05-03T04:06:16.580Z,5.00
2023-05-03T04:08:43.587Z,4.80
2023-05-03T04:11:12.706Z,5.20
2023-05-03T04:13:43.902Z,5.70
2023-05-03T04:16:11.114Z,5.20
2023-05-03T04:18:38.335Z,5.40
2023-05-03T04:21:08.353Z,5.10
2023-05-03T04:23:36.008Z,5.30
2023-05-03T04:26:05.059Z,5.20
2023-05-03T04:28:33.947Z,4.90
2023-05-03T04:31:01.178Z,5.10
2023-05-03T04:33:30.109Z,5.40
2023-05-03T04:36:00.556Z,5.40
2023-05-03T04:38:28.378Z,5.70
2023-05-03T04:40:56.814Z,5.20
2023-05-03T04:43:24.307Z,4.80
2023-05-03T04:45:53.749Z,4.70
2023-05-03T04:48:23.011Z,5.50
2023-05-03T04:50:50.063Z,4.80
2023-05-03T04:53:18.377Z,4.70
2023-05-03T04:55:51.174Z,4.60
2023-05-03T04:58:18.569Z,4.60
2023-05-03T05:00:46.460Z,4.70
2023-05-03T05:03:18.307Z,5.00
2023-05-03T05:05:45.454Z,4.50
2023-05-03T05:08:12.449Z,4.50
2023-05-03T05:10:43.655Z,4.40
2023-05-03T05:13:13.504Z,5.40
2023-05-03T05:15:41.731Z,3.90
2023-05-03T05:18:09.632Z,3.60
2023-05-03T05:20:37.549Z,3.70
2023-05-03T05:23:05.156Z,3.00
2023-05-03T05:25:32.330Z,3.00
2023-05-03T05:28:00.010Z,2.90
2023-05-03T05:30:27.145Z,2.80
2023-05-03T05:32:54.508Z,2.60
2023-05-03T05:35:21.548Z,3.00
2023-05-03T05:37:48.703Z,2.90
2023-05-03T05:40:15.733Z,3.20
2023-05-03T05:42:48.721Z,3.30
2023-05-03T05:45:17.037Z,3.10
2023-05-03T05:47:44.500Z,2.90
2023-05-03T05:50:17.417Z,3.30
2023-05-03T05:52:47.754Z,2.70
2023-05-03T05:55:16.079Z,3.00
2023-05-03T05:57:44.794Z,3.00
2023-05-03T06:00:15.918Z,2.80
2023-05-03T06:02:47.782Z,2.50
2023-05-03T06:05:18.657Z,2.70
2023-05-03T06:07:45.960Z,2.60
2023-05-03T06:10:13.012Z,2.50
2023-05-03T06:12:44.808Z,2.50
2023-05-03T06:15:15.829Z,2.20
2023-05-03T06:17:45.500Z,2.50
2023-05-03T06:20:13.112Z,2.00
2023-05-03T06:22:41.982Z,2.10
2023-05-03T06:25:16.167Z,2.10
2023-05-03T06:27:47.453Z,2.20
2023-05-03T06:30:15.388Z,2.50
2023-05-03T06:32:42.961Z,5.00
2023-05-03T06:35:11.137Z,2.90
2023-05-03T06:37:39.436Z,2.40
2023-05-03T06:40:07.872Z,2.40
2023-05-03T06:42:36.952Z,2.20
2023-05-03T06:45:24.280Z,2.10
2023-05-03T06:47:51.511Z,2.10
2023-05-03T06:50:20.337Z,2.10
2023-05-03T06:52:48.025Z,2.40
2023-05-03T06:55:14.995Z,1.90
2023-05-03T06:57:43.036Z,1.90
2023-05-03T07:00:11.049Z,1.50
2023-05-03T07:02:38.198Z,1.50
2023-05-03T07:05:05.962Z,1.60
2023-05-03T07:07:33.515Z,1.50
2023-05-03T07:10:00.789Z,1.60
2023-05-03T07:12:28.722Z,1.60
2023-05-03T07:14:55.806Z,1.70
2023-05-03T07:17:23.295Z,1.60
2023-05-03T07:19:50.801Z,1.50
2023-05-03T07:22:18.062Z,1.70
2023-05-03T07:24:45.177Z,1.50
2023-05-03T07:27:13.242Z,1.40
2023-05-03T07:29:40.271Z,1.60
2023-05-03T07:32:08.281Z,1.50
2023-05-03T07:34:35.288Z,1.50
2023-05-03T07:37:02.317Z,1.20
2023-05-03T07:39:29.349Z,1.30
2023-05-03T07:41:56.388Z,1.20
2023-05-03T07:44:23.361Z,1.00
2023-05-03T07:46:50.632Z,1.20
2023-05-03T07:49:17.977Z,1.30
2023-05-03T07:51:45.225Z,1.50
2023-05-03T07:54:14.087Z,1.20
2023-05-03T07:56:42.065Z,1.20
2023-05-03T07:59:10.614Z,1.20
2023-05-03T08:01:38.364Z,1.40
2023-05-03T08:04:06.706Z,1.30
2023-05-03T08:06:36.052Z,1.30
2023-05-03T08:09:04.933Z,1.40
2023-05-03T08:11:32.775Z,1.20
2023-05-03T08:13:59.917Z,1.30
2023-05-03T08:16:27.659Z,1.50
2023-05-03T08:18:55.150Z,1.20
2023-05-03T08:21:25.044Z,1.40
2023-05-03T08:23:52.258Z,1.20
2023-05-03T08:26:19.571Z,1.20
2023-05-03T08:28:46.626Z,1.30
2023-05-03T08:31:13.814Z,1.40
2023-05-03T08:33:40.864Z,1.50
2023-05-03T08:36:08.267Z,1.30
2023-05-03T08:38:36.849Z,1.30
2023-05-03T08:41:09.059Z,1.40
2023-05-03T08:43:36.168Z,1.40
2023-05-03T08:46:03.578Z,1.30
2023-05-03T08:48:31.398Z,1.30
2023-05-03T08:50:58.467Z,1.30
2023-05-03T08:53:25.873Z,1.20
2023-05-03T08:55:53.901Z,1.10
2023-05-03T08:58:20.980Z,1.20
2023-05-03T09:00:48.021Z,1.10
2023-05-03T09:03:15.096Z,1.30
2023-05-03T09:05:44.591Z,1.20
2023-05-03T09:08:13.049Z,1.20
2023-05-03T09:10:41.617Z,1.30
2023-05-03T09:13:09.523Z,1.40
2023-05-03T09:15:36.822Z,1.10
2023-05-03T09:18:10.423Z,1.10
2023-05-03T09:20:39.178Z,1.30
2023-05-03T09:23:08.392Z,1.20
2023-05-03T09:25:46.138Z,1.40
2023-05-03T09:28:14.336Z,1.40
2023-05-03T09:30:42.395Z,1.50
2023-05-03T09:33:10.783Z,1.20
2023-05-03T09:35:38.883Z,1.50
2023-05-03T09:38:06.456Z,1.20
2023-05-03T09:40:33.496Z,1.40
2023-05-03T09:43:11.748Z,1.30
2023-05-03T09:45:39.080Z,1.30
2023-05-03T09:48:07.648Z,1.30
2023-05-03T09:50:36.573Z,1.10
2023-05-03T09:53:05.698Z,1.30
2023-05-03T09:55:34.540Z,1.40
2023-05-03T09:58:04.573Z,1.40
2023-05-03T10:00:31.655Z,1.70
2023-05-03T10:03:00.305Z,1.40
2023-05-03T10:05:27.409Z,1.20
2023-05-03T10:07:54.559Z,1.30
2023-05-03T10:10:21.697Z,1.30
2023-05-03T10:12:48.727Z,1.30
2023-05-03T10:15:16.522Z,1.50
2023-05-03T10:17:48.309Z,1.30
2023-05-03T10:20:33.940Z,1.10
2023-05-03T10:23:14.141Z,1.20
2023-05-03T10:26:13.522Z,1.10
2023-05-03T10:28:40.921Z,1.20
2023-05-03T10:31:47.302Z,1.40
2023-05-03T10:34:24.566Z,1.10
2023-05-03T10:36:55.674Z,1.20
2023-05-03T10:39:22.967Z,1.10
2023-05-03T10:42:02.021Z,1.10
2023-05-03T10:44:39.376Z,1.10
2023-05-03T10:47:23.687Z,1.00
2023-05-03T10:50:15.966Z,1.00
2023-05-03T10:52:43.449Z,1.10
2023-05-03T10:55:14.435Z,0.90
2023-05-03T10:57:42.917Z,1.20
2023-05-03T11:00:16.748Z,1.30
2023-05-03T11:03:04.130Z,1.00
2023-05-03T11:05:31.770Z,1.10
2023-05-03T11:08:11.914Z,1.10
2023-05-03T11:10:39.620Z,1.10
2023-05-03T11:13:07.018Z,1.10
2023-05-03T11:15:34.266Z,1.10
2023-05-03T11:18:01.291Z,1.20
2023-05-03T11:20:28.529Z,1.20
2023-05-03T11:22:56.556Z,0.90
2023-05-03T11:25:23.585Z,1.10
2023-05-03T11:27:50.710Z,0.90
2023-05-03T11:30:18.308Z,1.00
2023-05-03T11:32:45.490Z,0.90
2023-05-03T11:35:14.056Z,1.00
2023-05-03T11:37:42.510Z,1.20
2023-05-03T11:40:16.926Z,1.10
2023-05-03T11:42:58.772Z,1.10
2023-05-03T11:47:07.406Z,1.30
2023-05-03T11:49:34.867Z,1.20
2023-05-03T11:52:01.988Z,1.20
2023-05-03T11:54:29.184Z,0.90
2023-05-03T11:56:58.127Z,1.10
2023-05-03T11:59:37.313Z,1.10
2023-05-03T12:02:06.314Z,1.60
2023-05-03T12:04:34.296Z,1.20
2023-05-03T12:07:03.033Z,1.30
2023-05-03T12:09:31.791Z,1.20
2023-05-03T12:12:01.628Z,1.30
2023-05-03T12:14:29.908Z,1.40
2023-05-03T12:17:00.454Z,1.20
2023-05-03T12:19:32.074Z,1.40
2023-05-03T12:22:22.627Z,1.30
2023-05-03T12:24:49.344Z,1.30
2023-05-03T12:27:19.409Z,1.40
2023-05-03T12:29:47.621Z,1.30
2023-05-03T12:32:29.295Z,1.20
2023-05-03T12:34:57.272Z,1.20
2023-05-03T12:37:27.387Z,0.90
2023-05-03T12:40:17.220Z,1.30
2023-05-03T12:42:43.423Z,1.30
2023-05-03T12:45:12.659Z,1.20
2023-05-03T12:47:43.866Z,1.20
2023-05-03T12:50:12.583Z,1.20
2023-05-03T12:52:40.186Z,1.30
2023-05-03T12:55:11.467Z,1.30
2023-05-03T12:57:39.258Z,1.20
2023-05-03T13:00:14.026Z,1.20
2023-05-03T13:03:21.282Z,1.30
2023-05-03T13:10:29.930Z,1.30
2023-05-03T13:13:01.583Z,1.30
2023-05-03T13:15:29.033Z,1.20
2023-05-03T13:17:56.589Z,1.20
2023-05-03T13:20:24.526Z,1.30
2023-05-03T13:22:52.084Z,1.60
2023-05-03T13:25:19.158Z,1.30
2023-05-03T13:27:47.499Z,1.20
2023-05-03T13:30:15.177Z,1.50
2023-05-03T13:32:42.375Z,1.40
2023-05-03T13:35:10.230Z,1.10
2023-05-03T13:37:37.304Z,1.40
2023-05-03T13:40:04.941Z,1.50
2023-05-03T13:42:33.191Z,1.50
2023-05-03T13:45:00.297Z,1.70
2023-05-03T13:47:33.115Z,1.50
2023-05-03T13:50:09.671Z,1.60
2023-05-03T13:52:36.852Z,1.50
2023-05-03T13:55:04.633Z,1.40
2023-05-03T13:57:31.700Z,1.40
2023-05-03T13:59:58.773Z,1.80
2023-05-03T14:02:25.862Z,2.00
2023-05-03T14:04:53.713Z,1.80
2023-05-03T14:07:20.988Z,1.30
2023-05-03T14:09:47.962Z,1.30
2023-05-03T14:12:14.934Z,1.20
2023-05-03T14:14:42.045Z,1.30
2023-05-03T14:17:09.546Z,1.10
2023-05-03T14:19:37.561Z,1.30
2023-05-03T14:22:04.653Z,1.30
2023-05-03T14:24:31.998Z,1.10
2023-05-03T14:27:00.390Z,1.00
2023-05-03T14:29:27.697Z,1.10
2023-05-03T14:31:56.738Z,1.00
2023-05-03T14:34:23.834Z,1.30
2023-05-03T14:36:51.432Z,1.20
2023-05-03T14:39:18.410Z,1.70
2023-05-03T14:41:45.543Z,1.50
2023-05-03T14:44:12.575Z,2.00
2023-05-03T14:46:40.031Z,2.00
2023-05-03T14:49:07.373Z,1.40
2023-05-03T14:51:35.192Z,1.50
2023-05-03T14:54:02.285Z,1.40
2023-05-03T14:56:31.874Z,1.40
2023-05-03T14:58:59.421Z,1.70
2023-05-03T15:01:27.160Z,1.40
2023-05-03T15:03:54.317Z,1.60
2023-05-03T15:06:26.717Z,1.20
2023-05-03T15:08:54.256Z,1.70
2023-05-03T15:11:21.878Z,1.30
2023-05-03T15:13:48.980Z,1.10
2023-05-03T15:16:16.152Z,1.00
2023-05-03T15:18:48.616Z,1.00
2023-05-03T15:23:43.941Z,1.00
2023-05-03T15:26:11.298Z,1.00
2023-05-03T15:28:38.352Z,1.10
2023-05-03T15:31:05.455Z,1.10
2023-05-03T15:33:41.023Z,1.10
2023-05-03T15:36:08.427Z,1.10
2023-05-03T15:38:35.983Z,1.30
2023-05-03T15:41:03.144Z,1.00
2023-05-03T15:43:30.195Z,1.10
2023-05-03T15:45:57.258Z,1.20
2023-05-03T15:48:24.655Z,1.30
2023-05-03T15:50:51.647Z,1.40
2023-05-03T15:53:19.081Z,1.10
2023-05-03T15:55:46.073Z,0.90
2023-05-03T15:58:13.394Z,1.00
2023-05-03T16:00:40.420Z,1.20
2023-05-03T16:28:07.201Z,1.20
2023-05-03T16:30:35.189Z,1.30
2023-05-03T16:33:06.741Z,1.30
2023-05-03T16:35:33.846Z,1.20
2023-05-03T16:38:00.884Z,1.30
2023-05-03T16:40:28.012Z,1.30
2023-05-03T16:42:56.072Z,1.80
2023-05-03T16:45:23.042Z,1.30
2023-05-03T16:47:50.036Z,1.70
2023-05-03T16:50:17.528Z,1.70
2023-05-03T16:52:44.744Z,1.50
2023-05-03T16:55:12.721Z,1.80
2023-05-03T16:57:40.232Z,2.60
2023-05-03T17:00:11.562Z,3.20
2023-05-03T17:02:39.886Z,3.30
2023-05-03T17:05:11.231Z,4.00
2023-05-03T17:07:38.323Z,6.90
2023-05-03T17:10:06.874Z,6.70
2023-05-03T17:12:34.381Z,8.10
2023-05-03T17:15:02.171Z,8.80
2023-05-03T17:17:30.924Z,7.10
2023-05-03T17:19:58.309Z,8.90
2023-05-03T17:22:25.601Z,6.40
2023-05-03T17:24:54.907Z,7.00
2023-05-03T17:27:22.033Z,9.00
2023-05-03T17:29:49.455Z,9.50
2023-05-03T17:32:16.732Z,9.70
2023-05-03T17:34:43.793Z,10.30
2023-05-03T17:37:10.863Z,8.60
2023-05-03T17:39:37.974Z,7.30
2023-05-03T17:42:05.722Z,6.90
2023-05-03T17:44:33.460Z,5.80
2023-05-03T17:47:01.111Z,6.10
2023-05-03T17:49:28.134Z,6.40
2023-05-03T17:51:55.163Z,7.90
2023-05-03T17:54:22.242Z,9.50
2023-05-03T17:56:50.023Z,8.90
2023-05-03T17:59:18.323Z,8.20
2023-05-03T18:01:47.058Z,8.00
2023-05-03T18:04:14.206Z,7.90
2023-05-03T18:06:41.423Z,6.70
2023-05-03T18:09:08.641Z,6.20
2023-05-03T18:11:35.634Z,6.00
2023-05-03T18:14:02.810Z,5.70
2023-05-03T18:16:29.894Z,5.00
2023-05-03T18:18:58.499Z,5.20
2023-05-03T18:21:27.766Z,4.80
2023-05-03T18:23:54.779Z,4.40
2023-05-03T18:26:21.780Z,4.30
2023-05-03T18:28:48.835Z,4.20
2023-05-03T18:31:16.317Z,4.00
2023-05-03T18:33:44.170Z,4.30
2023-05-03T18:36:12.224Z,4.30
2023-05-03T18:38:39.740Z,7.30
2023-05-03T18:41:14.364Z,6.30
2023-05-03T18:43:45.177Z,5.00
2023-05-03T18:46:17.100Z,4.70
2023-05-03T18:48:44.233Z,5.60
2023-05-03T18:51:11.936Z,4.90
2023-05-03T18:53:39.315Z,6.00
2023-05-03T18:56:06.483Z,4.90
2023-05-03T18:58:34.130Z,4.80
2023-05-03T19:01:01.414Z,4.40
2023-05-03T19:03:31.578Z,4.10
2023-05-03T19:06:04.182Z,4.10
2023-05-03T19:08:31.842Z,3.70
2023-05-03T19:11:07.488Z,3.70
2023-05-03T19:13:34.900Z,3.40
2023-05-03T19:16:02.750Z,3.20
2023-05-03T19:18:29.737Z,3.30
2023-05-03T19:20:57.608Z,3.50
2023-05-03T19:23:24.652Z,3.50
2023-05-03T19:25:51.776Z,3.50
2023-05-03T19:28:18.889Z,3.50
2023-05-03T19:30:47.321Z,3.50
2023-05-03T19:33:16.041Z,3.10
2023-05-03T19:35:43.527Z,3.10
2023-05-03T19:38:10.641Z,3.30
2023-05-03T19:40:39.072Z,3.30
2023-05-03T19:43:07.509Z,3.10
2023-05-03T19:45:34.582Z,3.00
2023-05-03T19:48:01.768Z,3.00
2023-05-03T19:50:28.767Z,3.20
2023-05-03T19:52:55.738Z,3.40
2023-05-03T19:55:22.785Z,3.10
2023-05-03T19:57:49.772Z,3.60
2023-05-03T20:00:17.617Z,3.10
2023-05-03T20:02:44.799Z,3.00
2023-05-03T20:05:11.848Z,3.30
2023-05-03T20:07:38.914Z,3.50
2023-05-03T20:10:06.694Z,3.00
2023-05-03T20:12:34.137Z,3.10
2023-05-03T20:15:01.304Z,3.20
2023-05-03T20:17:28.405Z,3.30
2023-05-03T20:19:55.527Z,3.40
2023-05-03T20:22:22.663Z,3.80
2023-05-03T20:24:51.808Z,4.20
2023-05-03T20:27:19.470Z,4.50
2023-05-03T20:29:46.474Z,4.30
2023-05-03T20:32:13.633Z,4.20
2023-05-03T20:34:40.802Z,3.90
2023-05-03T20:37:08.502Z,4.30
2023-05-03T20:39:35.617Z,4.10
2023-05-03T20:42:02.783Z,4.70
2023-05-03T20:44:29.746Z,4.00
2023-05-03T20:46:56.709Z,4.30
2023-05-03T20:49:23.759Z,4.10
2023-05-03T20:51:50.763Z,4.90
2023-05-03T20:54:17.733Z,4.70
2023-05-03T20:56:44.783Z,5.20
2023-05-03T20:59:11.829Z,5.10
2023-05-03T21:01:40.618Z,5.10
2023-05-03T21:04:07.867Z,5.50
2023-05-03T21:06:38.312Z,5.80
2023-05-03T21:09:06.094Z,5.70
2023-05-03T21:11:33.217Z,5.40
2023-05-03T21:14:02.063Z,5.50
2023-05-03T21:16:29.374Z,5.70
2023-05-03T21:18:56.534Z,6.10
2023-05-03T21:21:24.400Z,6.70
2023-05-03T21:23:51.401Z,6.90
2023-05-03T21:26:18.458Z,6.20
2023-05-03T21:28:45.576Z,6.60
2023-05-03T21:31:12.737Z,6.80
2023-05-03T21:33:39.845Z,6.40
2023-05-03T21:36:07.229Z,6.20
2023-05-03T21:38:34.403Z,6.10
2023-05-03T21:41:07.599Z,5.70
2023-05-03T21:46:08.128Z,6.50
2023-05-03T21:48:38.264Z,5.80
2023-05-03T21:51:05.357Z,5.20
2023-05-03T21:53:33.600Z,5.00
2023-05-03T21:56:00.620Z,5.90
2023-05-03T21:58:27.662Z,5.20
2023-05-03T22:00:54.688Z,4.80
2023-05-03T22:03:22.086Z,4.40
2023-05-03T22:05:50.695Z,4.40
2023-05-03T22:08:18.727Z,4.30
2023-05-03T22:10:46.661Z,4.40
2023-05-03T22:13:13.759Z,4.50
2023-05-03T22:15:40.939Z,4.30
2023-05-03T22:18:08.120Z,3.80
2023-05-03T22:20:35.188Z,4.20
2023-05-03T22:23:02.796Z,4.10
2023-05-03T22:25:32.069Z,4.40
2023-05-03T22:27:59.920Z,4.30
2023-05-03T22:30:27.669Z,4.40
2023-05-03T22:32:54.700Z,4.60
2023-05-03T22:35:21.893Z,3.80
2023-05-03T22:37:48.987Z,4.00
2023-05-03T22:40:16.156Z,3.80
2023-05-03T22:42:43.211Z,4.00
2023-05-03T22:45:10.593Z,3.80
2023-05-03T22:47:37.754Z,4.00
2023-05-03T22:50:06.291Z,4.20
2023-05-03T22:52:33.505Z,3.80
2023-05-03T22:55:01.550Z,3.50
2023-05-03T22:57:28.535Z,3.90
2023-05-03T22:59:55.566Z,3.90
2023-05-03T23:02:22.627Z,4.00
2023-05-03T23:04:50.284Z,4.00
2023-05-03T23:07:17.301Z,4.30
2023-05-03T23:09:46.971Z,3.80
2023-05-03T23:12:14.255Z,3.80
2023-05-03T23:14:43.908Z,3.90
2023-05-03T23:17:10.953Z,4.20
2023-05-03T23:19:38.374Z,4.40
2023-05-03T23:22:05.664Z,3.90
2023-05-03T23:24:34.821Z,3.80
2023-05-03T23:27:01.933Z,3.90
2023-05-03T23:29:29.530Z,3.80
2023-05-03T23:31:57.142Z,3.60
2023-05-03T23:34:25.017Z,4.30
2023-05-03T23:36:52.131Z,4.20
2023-05-03T23:39:19.199Z,3.90
2023-05-03T23:41:46.235Z,3.90
2023-05-03T23:44:13.316Z,3.60
2023-05-03T23:46:40.401Z,3.80
2023-05-03T23:49:07.857Z,3.80
2023-05-03T23:51:35.280Z,3.70
2023-05-03T23:54:02.243Z,3.60
2023-05-03T23:56:29.209Z,3.80
2023-05-03T23:58:56.232Z,3.30
